Time;durP1;ratioP1;P1;durP2;ratioP2;P2;SDS_P1;SDS_P2;PMS_P1;PMS_P2;Temp;Humidity;BMP_temperature;BMP_pressure;BME280_temperature;BME280_humidity;BME280_pressure;Samples;Min_cycle;Max_cycle;Signal;HPM_P1;HPM_P2
2022/06/10 00:02:21;;;;;;;;;;;11.20;99.90;;;;;;5041486;28;19963;-71
2022/06/10 00:04:47;;;;;;;;;;;11.20;99.90;;;;;;5040441;28;19931;-70
2022/06/10 00:07:12;;;;;;;;;;;11.20;99.90;;;;;;5042432;28;20275;-71
2022/06/10 00:09:38;;;;;;;;;;;11.20;99.90;;;;;;5040233;28;19924;-70
2022/06/10 00:12:04;;;;;;;;;;;11.20;99.90;;;;;;5057980;28;19978;-70
2022/06/10 00:14:30;;;;;;;;;;;11.20;99.90;;;;;;5030493;28;20306;-70
2022/06/10 00:16:56;;;;;;;;;;;11.20;99.90;;;;;;5032510;28;19920;-70
2022/06/10 00:19:21;;;;;;;;;;;11.20;99.90;;;;;;5060028;28;19920;-70
2022/06/10 00:21:47;;;;;;;;;;;11.10;99.90;;;;;;5060428;28;19933;-70
2022/06/10 00:24:12;;;;;;;;;;;11.20;99.90;;;;;;5043211;28;19920;-70
2022/06/10 00:26:38;;;;;;;;;;;11.20;99.90;;;;;;5063859;28;20025;-70
2022/06/10 00:29:03;;;;;;;;;;;11.20;99.90;;;;;;5061833;28;20398;-70
2022/06/10 00:31:29;;;;;;;;;;;11.30;99.90;;;;;;5059438;28;20148;-70
2022/06/10 00:33:54;;;;;;;;;;;11.20;99.90;;;;;;5059510;28;19950;-71
2022/06/10 00:36:20;;;;;;;;;;;11.30;99.90;;;;;;5059355;28;20590;-70
2022/06/10 00:38:46;;;;;;;;;;;11.30;99.90;;;;;;5020088;28;20011;-70
2022/06/10 00:41:12;;;;;;;;;;;11.30;99.90;;;;;;5057245;28;19996;-70
2022/06/10 00:43:37;;;;;;;;;;;11.30;99.90;;;;;;5045034;28;19920;-70
2022/06/10 00:46:22;;;;;;;;;;;11.20;99.90;;;;;;5061575;28;19921;-71
2022/06/10 00:49:03;;;;;;;;;;;11.20;99.90;;;;;;5031300;28;19925;-70
2022/06/10 00:51:32;;;;;;;;;;;11.20;99.90;;;;;;5027881;28;20396;-70
2022/06/10 00:54:18;;;;;;;;;;;11.20;99.90;;;;;;5061797;28;20393;-71
2022/06/10 00:56:46;;;;;;;;;;;11.20;99.90;;;;;;5027047;28;20325;-71
2022/06/10 00:59:17;;;;;;;;;;;11.30;99.90;;;;;;5027903;28;20256;-71
2022/06/10 01:01:44;;;;;;;;;;;11.20;99.90;;;;;;5059733;28;19916;-71
2022/06/10 01:04:10;;;;;;;;;;;11.20;99.90;;;;;;5028813;28;20027;-71
2022/06/10 01:06:35;;;;;;;;;;;11.20;99.90;;;;;;5025652;28;19916;-71
2022/06/10 01:09:01;;;;;;;;;;;11.20;99.90;;;;;;5023035;28;19923;-71
2022/06/10 01:11:36;;;;;;;;;;;11.20;99.90;;;;;;5018691;28;19921;-70
2022/06/10 01:14:07;;;;;;;;;;;11.20;99.90;;;;;;5025177;28;19925;-71
2022/06/10 01:16:39;;;;;;;;;;;11.20;99.90;;;;;;5012605;28;20284;-71
2022/06/10 01:19:24;;;;;;;;;;;11.10;99.90;;;;;;5039580;28;19923;-71
2022/06/10 01:22:08;;;;;;;;;;;11.10;99.90;;;;;;5000821;28;20384;-71
2022/06/10 01:25:12;;;;;;;;;;;11.10;99.90;;;;;;5010100;28;20338;-71
2022/06/10 01:27:49;;;;;;;;;;;11.10;99.90;;;;;;4951081;28;19926;-70
2022/06/10 01:30:21;;;;;;;;;;;11.10;99.90;;;;;;4979523;28;20009;-71
2022/06/10 01:32:58;;;;;;;;;;;11.00;99.90;;;;;;4977677;28;19939;-71
2022/06/10 01:35:24;;;;;;;;;;;11.10;99.90;;;;;;5040895;28;20007;-71
2022/06/10 01:37:59;;;;;;;;;;;11.00;99.90;;;;;;5038413;28;20040;-71
2022/06/10 01:40:24;;;;;;;;;;;10.90;99.90;;;;;;5006897;28;20264;-70
2022/06/10 01:43:06;;;;;;;;;;;10.90;99.90;;;;;;5035176;28;19929;-71
2022/06/10 01:45:52;;;;;;;;;;;10.90;99.90;;;;;;5003178;28;19929;-71
2022/06/10 01:48:34;;;;;;;;;;;10.80;99.90;;;;;;5029352;28;19928;-70
2022/06/10 01:51:02;;;;;;;;;;;10.80;99.90;;;;;;5012497;28;20263;-71
2022/06/10 01:53:34;;;;;;;;;;;10.80;99.90;;;;;;5039471;28;19941;-71
2022/06/10 01:56:04;;;;;;;;;;;10.70;99.90;;;;;;5010575;28;19924;-71
2022/06/10 01:58:34;;;;;;;;;;;10.70;99.90;;;;;;5040247;28;19921;-70
2022/06/10 02:01:05;;;;;;;;;;;10.70;99.90;;;;;;5007902;28;19921;-70
2022/06/10 02:03:36;;;;;;;;;;;10.70;99.90;;;;;;5039822;28;19966;-71
2022/06/10 02:06:09;;;;;;;;;;;10.60;99.90;;;;;;5007473;28;19932;-70
2022/06/10 02:08:37;;;;;;;;;;;10.60;99.90;;;;;;5009212;28;19921;-70
2022/06/10 02:11:05;;;;;;;;;;;10.50;99.90;;;;;;5046426;28;20498;-70
2022/06/10 02:13:32;;;;;;;;;;;10.50;99.90;;;;;;5023578;28;19925;-70
2022/06/10 02:16:00;;;;;;;;;;;10.60;99.90;;;;;;5029246;28;19917;-71
2022/06/10 02:18:35;;;;;;;;;;;10.70;99.90;;;;;;5024255;28;19917;-70
2022/06/10 02:21:05;;;;;;;;;;;10.60;99.90;;;;;;5047626;28;19931;-71
2022/06/10 02:23:35;;;;;;;;;;;10.60;99.90;;;;;;5029228;28;20367;-70
2022/06/10 02:26:03;;;;;;;;;;;10.70;99.90;;;;;;5028003;28;21170;-70
2022/06/10 02:28:33;;;;;;;;;;;10.70;99.90;;;;;;5061728;28;19928;-70
2022/06/10 02:31:32;;;;;;;;;;;10.70;99.90;;;;;;5015603;28;20726;-70
2022/06/10 02:33:58;;;;;;;;;;;10.70;99.90;;;;;;5016341;28;20314;-70
2022/06/10 02:36:36;;;;;;;;;;;10.70;99.90;;;;;;5032820;28;20422;-71
2022/06/10 02:39:06;;;;;;;;;;;10.70;99.90;;;;;;5060016;28;19924;-71
2022/06/10 02:41:37;;;;;;;;;;;10.60;99.90;;;;;;5030420;28;19925;-70
2022/06/10 02:44:36;;;;;;;;;;;10.60;99.90;;;;;;5027980;28;20212;-71
2022/06/10 02:47:18;;;;;;;;;;;10.60;99.90;;;;;;5029638;28;19928;-71
2022/06/10 02:49:44;;;;;;;;;;;10.50;99.90;;;;;;5032211;28;19916;-71
2022/06/10 02:52:11;;;;;;;;;;;10.50;99.90;;;;;;5033817;28;19917;-71
2022/06/10 02:54:38;;;;;;;;;;;10.40;99.90;;;;;;5034878;28;19916;-70
2022/06/10 02:57:14;;;;;;;;;;;10.40;99.90;;;;;;5045987;28;20034;-70
2022/06/10 03:02:36;;;;;;;;;;;10.40;99.90;;;;;;5061242;28;19920;-70
2022/06/10 03:05:22;;;;;;;;;;;10.40;99.90;;;;;;5030178;28;20282;-70
2022/06/10 03:08:08;;;;;;;;;;;10.40;99.90;;;;;;5024084;28;19921;-70
2022/06/10 03:10:36;;;;;;;;;;;10.40;99.90;;;;;;5062232;28;19924;-70
2022/06/10 03:13:08;;;;;;;;;;;10.40;99.90;;;;;;5043056;28;20003;-70
2022/06/10 03:15:36;;;;;;;;;;;10.50;99.90;;;;;;5012968;28;20324;-71
2022/06/10 03:18:02;;;;;;;;;;;10.40;99.90;;;;;;5043500;28;20003;-71
2022/06/10 03:20:34;;;;;;;;;;;10.50;99.90;;;;;;5058316;28;20436;-70
2022/06/10 03:23:18;;;;;;;;;;;10.40;99.90;;;;;;5024112;28;20427;-71
2022/06/10 03:25:47;;;;;;;;;;;10.50;99.90;;;;;;5028280;28;21881;-71
2022/06/10 03:28:23;;;;;;;;;;;10.50;99.90;;;;;;5058268;28;19921;-71
2022/06/10 03:30:59;;;;;;;;;;;10.50;99.90;;;;;;5029719;28;19924;-70
2022/06/10 03:33:34;;;;;;;;;;;10.50;99.90;;;;;;5031699;28;20268;-71
2022/06/10 03:36:06;;;;;;;;;;;10.60;99.90;;;;;;5034288;28;19920;-71
2022/06/10 03:38:33;;;;;;;;;;;10.60;99.90;;;;;;5029721;28;19931;-70
2022/06/10 03:40:59;;;;;;;;;;;10.60;99.90;;;;;;5029733;28;19920;-70
2022/06/10 03:43:25;;;;;;;;;;;10.60;99.90;;;;;;5061269;28;20245;-70
2022/06/10 03:45:54;;;;;;;;;;;10.60;99.90;;;;;;5056744;28;19928;-70
2022/06/10 03:48:20;;;;;;;;;;;10.60;99.90;;;;;;5032598;28;19923;-70
2022/06/10 03:50:47;;;;;;;;;;;10.70;99.90;;;;;;5063002;28;19916;-70
2022/06/10 03:53:18;;;;;;;;;;;10.70;99.90;;;;;;5059935;28;20275;-70
2022/06/10 03:55:43;;;;;;;;;;;10.70;99.90;;;;;;5035796;28;20401;-70
2022/06/10 03:58:09;;;;;;;;;;;10.70;99.90;;;;;;5057104;28;19980;-71
2022/06/10 04:00:35;;;;;;;;;;;10.80;99.90;;;;;;5025474;28;19918;-71
2022/06/10 04:03:01;;;;;;;;;;;10.80;99.90;;;;;;5034256;28;19916;-70
2022/06/10 04:05:26;;;;;;;;;;;10.80;99.90;;;;;;5056523;28;19927;-70
2022/06/10 04:07:52;;;;;;;;;;;10.90;99.90;;;;;;5056511;28;20317;-70
2022/06/10 04:10:20;;;;;;;;;;;11.00;99.90;;;;;;5046524;28;20015;-70
2022/06/10 04:12:45;;;;;;;;;;;11.00;99.90;;;;;;5053905;28;19917;-71
2022/06/10 04:15:14;;;;;;;;;;;11.10;99.90;;;;;;5031164;28;20582;-70
2022/06/10 04:17:41;;;;;;;;;;;11.20;99.90;;;;;;5033394;28;20176;-71
2022/06/10 04:20:07;;;;;;;;;;;11.10;99.90;;;;;;5030269;28;19916;-70
2022/06/10 04:22:32;;;;;;;;;;;11.30;99.90;;;;;;5039846;28;20024;-70
2022/06/10 04:24:58;;;;;;;;;;;11.30;99.90;;;;;;5033430;28;20380;-70
2022/06/10 04:27:23;;;;;;;;;;;11.40;99.90;;;;;;5039811;28;20400;-70
2022/06/10 04:29:49;;;;;;;;;;;11.50;99.90;;;;;;5035464;28;20371;-70
2022/06/10 04:32:14;;;;;;;;;;;11.50;99.90;;;;;;5037131;28;19925;-70
2022/06/10 04:34:40;;;;;;;;;;;11.60;99.90;;;;;;5031774;28;20452;-69
2022/06/10 04:37:06;;;;;;;;;;;11.70;99.90;;;;;;5047118;28;19924;-70
2022/06/10 04:39:31;;;;;;;;;;;11.90;99.90;;;;;;5029065;28;19962;-70
2022/06/10 04:41:57;;;;;;;;;;;12.00;99.90;;;;;;5057520;28;19967;-70
2022/06/10 04:44:22;;;;;;;;;;;12.10;99.90;;;;;;5038737;28;19960;-70
2022/06/10 04:46:48;;;;;;;;;;;12.20;99.90;;;;;;5037699;28;19927;-71
2022/06/10 04:49:14;;;;;;;;;;;12.50;99.90;;;;;;5038339;28;19923;-70
2022/06/10 04:51:40;;;;;;;;;;;12.60;99.90;;;;;;5032638;28;19917;-71
2022/06/10 04:54:06;;;;;;;;;;;12.80;99.90;;;;;;5017590;28;19948;-70
2022/06/10 04:56:31;;;;;;;;;;;13.10;99.90;;;;;;5031248;28;19924;-72
2022/06/10 04:58:57;;;;;;;;;;;13.20;99.90;;;;;;5062322;28;19921;-70
2022/06/10 05:01:22;;;;;;;;;;;13.20;99.90;;;;;;5035661;28;19920;-70
2022/06/10 05:03:48;;;;;;;;;;;13.30;99.90;;;;;;5044443;28;19973;-71
2022/06/10 05:06:14;;;;;;;;;;;13.30;99.90;;;;;;5061220;28;19921;-70
2022/06/10 05:08:39;;;;;;;;;;;13.40;99.90;;;;;;5041949;28;19916;-71
2022/06/10 05:11:07;;;;;;;;;;;13.40;99.90;;;;;;5034547;28;19963;-71
2022/06/10 05:13:32;;;;;;;;;;;13.40;99.90;;;;;;5055962;28;20316;-72
2022/06/10 05:15:58;;;;;;;;;;;13.50;99.90;;;;;;5035286;28;19924;-72
2022/06/10 05:18:24;;;;;;;;;;;13.40;99.90;;;;;;5033758;28;19925;-72
2022/06/10 05:20:50;;;;;;;;;;;13.50;99.90;;;;;;5030884;28;19917;-73
2022/06/10 05:23:17;;;;;;;;;;;13.50;99.90;;;;;;5032114;28;19981;-72
2022/06/10 05:25:42;;;;;;;;;;;13.60;99.90;;;;;;5033236;28;19924;-72
2022/06/10 05:28:09;;;;;;;;;;;13.60;99.90;;;;;;5059629;28;20078;-72
2022/06/10 05:30:35;;;;;;;;;;;13.60;99.90;;;;;;5028906;28;19958;-71
2022/06/10 05:33:01;;;;;;;;;;;13.80;99.90;;;;;;5031330;28;19967;-72
2022/06/10 05:35:27;;;;;;;;;;;13.80;99.90;;;;;;5030426;28;19916;-71
2022/06/10 05:37:53;;;;;;;;;;;13.70;99.90;;;;;;5030458;28;20004;-73
2022/06/10 05:40:20;;;;;;;;;;;13.70;99.90;;;;;;5053657;28;20007;-72
2022/06/10 05:42:46;;;;;;;;;;;13.80;99.90;;;;;;5057174;28;20446;-72
2022/06/10 05:45:13;;;;;;;;;;;13.80;99.90;;;;;;5029793;28;19928;-72
2022/06/10 05:47:40;;;;;;;;;;;13.90;99.90;;;;;;5032204;28;20038;-71
2022/06/10 05:50:12;;;;;;;;;;;14.00;99.90;;;;;;5045104;28;19932;-72
2022/06/10 05:52:37;;;;;;;;;;;14.00;99.90;;;;;;5035748;28;20517;-72
2022/06/10 05:55:05;;;;;;;;;;;14.10;99.90;;;;;;5037819;28;19917;-73
2022/06/10 05:57:31;;;;;;;;;;;14.10;99.90;;;;;;5035411;28;19924;-72
2022/06/10 05:59:57;;;;;;;;;;;14.20;99.90;;;;;;5038549;28;19960;-72
2022/06/10 06:02:23;;;;;;;;;;;14.20;99.90;;;;;;5056926;28;19968;-73
2022/06/10 06:04:49;;;;;;;;;;;14.40;99.90;;;;;;5057151;28;20490;-72
2022/06/10 06:07:18;;;;;;;;;;;14.50;99.90;;;;;;5037542;28;19948;-73
2022/06/10 06:09:44;;;;;;;;;;;14.60;99.90;;;;;;5041139;28;19921;-73
2022/06/10 06:12:09;;;;;;;;;;;14.60;99.90;;;;;;5032734;28;19974;-72
2022/06/10 06:14:35;;;;;;;;;;;14.60;99.90;;;;;;5029710;28;20278;-72
2022/06/10 06:17:02;;;;;;;;;;;14.60;99.90;;;;;;5036320;28;19923;-72
2022/06/10 06:19:28;;;;;;;;;;;14.70;99.90;;;;;;5044386;28;19920;-71
2022/06/10 06:21:54;;;;;;;;;;;14.70;99.90;;;;;;5048004;28;19924;-72
2022/06/10 06:24:20;;;;;;;;;;;14.70;99.90;;;;;;5037243;28;19925;-72
2022/06/10 06:26:45;;;;;;;;;;;14.70;99.90;;;;;;5040954;28;19963;-73
2022/06/10 06:29:11;;;;;;;;;;;14.80;99.90;;;;;;5034980;28;19935;-72
2022/06/10 06:31:37;;;;;;;;;;;14.90;99.90;;;;;;5039598;28;19924;-72
2022/06/10 06:34:03;;;;;;;;;;;15.00;99.90;;;;;;5037395;28;19963;-71
2022/06/10 06:36:31;;;;;;;;;;;15.10;99.90;;;;;;5035585;28;19924;-72
2022/06/10 06:38:57;;;;;;;;;;;15.10;99.90;;;;;;5031435;28;19921;-71
2022/06/10 06:41:22;;;;;;;;;;;15.20;99.90;;;;;;5043120;28;19944;-71
2022/06/10 06:43:48;;;;;;;;;;;15.20;99.90;;;;;;5060587;28;19954;-72
2022/06/10 06:46:16;;;;;;;;;;;15.30;99.90;;;;;;5033140;28;19929;-71
2022/06/10 06:48:42;;;;;;;;;;;15.50;99.90;;;;;;5029332;28;20453;-72
2022/06/10 06:51:08;;;;;;;;;;;15.50;99.90;;;;;;5048489;28;19940;-72
2022/06/10 06:53:34;;;;;;;;;;;15.60;99.90;;;;;;5031261;28;19920;-71
2022/06/10 06:56:03;;;;;;;;;;;15.70;99.90;;;;;;5060688;28;21107;-72
2022/06/10 06:58:29;;;;;;;;;;;15.80;99.90;;;;;;5031207;28;19917;-72
2022/06/10 07:00:55;;;;;;;;;;;15.80;99.90;;;;;;5034186;28;19978;-71
2022/06/10 07:03:20;;;;;;;;;;;15.90;99.90;;;;;;5033553;28;19928;-72
2022/06/10 07:05:46;;;;;;;;;;;15.80;99.90;;;;;;5031686;28;19989;-71
2022/06/10 07:08:12;;;;;;;;;;;16.00;99.90;;;;;;5032200;28;19921;-71
2022/06/10 07:10:38;;;;;;;;;;;15.90;99.90;;;;;;5047841;28;19923;-71
2022/06/10 07:13:03;;;;;;;;;;;16.00;99.90;;;;;;5066968;28;20264;-72
2022/06/10 07:15:29;;;;;;;;;;;16.00;99.90;;;;;;5055103;28;19924;-71
2022/06/10 07:17:56;;;;;;;;;;;16.10;99.90;;;;;;5033966;28;19917;-71
2022/06/10 07:20:24;;;;;;;;;;;16.20;99.90;;;;;;5039037;28;20034;-72
2022/06/10 07:22:49;;;;;;;;;;;16.30;99.90;;;;;;5052988;28;19916;-71
2022/06/10 07:25:16;;;;;;;;;;;16.40;99.90;;;;;;5055070;28;20394;-71
2022/06/10 07:27:42;;;;;;;;;;;16.50;99.90;;;;;;5049662;28;21303;-73
2022/06/10 07:30:09;;;;;;;;;;;16.60;99.90;;;;;;5047254;28;19923;-72
2022/06/10 07:32:34;;;;;;;;;;;16.60;99.90;;;;;;5051480;28;19917;-71
2022/06/10 07:35:00;;;;;;;;;;;16.70;99.90;;;;;;5063318;28;20580;-71
2022/06/10 07:37:25;;;;;;;;;;;16.90;99.90;;;;;;5029335;28;20007;-71
2022/06/10 07:39:51;;;;;;;;;;;17.00;99.90;;;;;;5030635;28;20361;-72
2022/06/10 07:42:17;;;;;;;;;;;17.00;99.90;;;;;;5026835;28;19927;-71
2022/06/10 07:44:43;;;;;;;;;;;16.90;99.90;;;;;;5039105;28;19921;-72
2022/06/10 07:47:11;;;;;;;;;;;17.00;99.90;;;;;;5026097;28;20358;-72
2022/06/10 07:49:37;;;;;;;;;;;16.90;99.90;;;;;;5029847;28;19916;-71
2022/06/10 07:52:03;;;;;;;;;;;17.00;99.90;;;;;;5053376;28;19971;-72
2022/06/10 07:54:29;;;;;;;;;;;17.00;99.90;;;;;;5036701;28;19917;-72
2022/06/10 07:56:55;;;;;;;;;;;17.00;99.90;;;;;;5033394;28;19924;-71
2022/06/10 07:59:20;;;;;;;;;;;17.00;99.90;;;;;;5067022;28;19921;-73
2022/06/10 08:01:46;;;;;;;;;;;16.90;99.90;;;;;;5058385;28;20019;-72
2022/06/10 08:04:11;;;;;;;;;;;16.80;99.90;;;;;;5022934;28;19917;-71
2022/06/10 08:06:39;;;;;;;;;;;16.80;99.90;;;;;;5063680;28;19951;-71
2022/06/10 08:09:05;;;;;;;;;;;16.90;99.90;;;;;;5067579;28;19960;-70
2022/06/10 08:11:31;;;;;;;;;;;16.90;99.90;;;;;;5033311;28;19972;-72
2022/06/10 08:13:57;;;;;;;;;;;17.00;99.90;;;;;;5034342;28;19924;-70
2022/06/10 08:16:23;;;;;;;;;;;17.00;99.90;;;;;;5058077;28;20256;-71
2022/06/10 08:18:49;;;;;;;;;;;17.00;99.90;;;;;;5013583;28;19917;-71
2022/06/10 08:22:32;;;;;;;;;;;17.10;99.90;;;;;;5060307;28;19940;-72
2022/06/10 08:24:16;;;;;;;;;;;17.10;99.90;;;;;;5022184;28;20011;-71
2022/06/10 08:26:41;;;;;;;;;;;17.10;99.90;;;;;;5055101;28;20055;-71
2022/06/10 08:29:07;;;;;;;;;;;17.10;99.90;;;;;;5021092;28;20019;-71
2022/06/10 08:31:33;;;;;;;;;;;17.20;99.90;;;;;;5055133;28;19917;-72
2022/06/10 08:33:59;;;;;;;;;;;17.20;99.90;;;;;;5033999;28;19921;-72
2022/06/10 08:36:25;;;;;;;;;;;17.30;99.90;;;;;;5056159;28;19931;-71
2022/06/10 08:38:50;;;;;;;;;;;17.40;99.90;;;;;;5020079;28;20337;-72
2022/06/10 08:41:22;;;;;;;;;;;17.40;99.90;;;;;;5023184;28;20043;-72
2022/06/10 08:43:57;;;;;;;;;;;17.40;99.90;;;;;;5024726;28;20541;-73
2022/06/10 08:46:25;;;;;;;;;;;17.50;99.90;;;;;;5042254;28;19924;-72
2022/06/10 08:49:14;;;;;;;;;;;17.50;99.90;;;;;;5040963;28;20291;-73
2022/06/10 08:51:45;;;;;;;;;;;17.50;99.90;;;;;;5001669;28;19920;-70
2022/06/10 08:54:14;;;;;;;;;;;17.40;99.90;;;;;;5045950;28;20181;-71
2022/06/10 08:56:41;;;;;;;;;;;17.30;99.90;;;;;;5026368;28;21159;-70
2022/06/10 08:59:18;;;;;;;;;;;17.30;99.90;;;;;;5059746;28;19962;-71
2022/06/10 09:01:47;;;;;;;;;;;17.20;99.90;;;;;;5026414;28;19916;-72
2022/06/10 09:04:21;;;;;;;;;;;17.10;99.90;;;;;;5033018;28;20322;-72
2022/06/10 09:06:51;;;;;;;;;;;17.10;99.90;;;;;;5030703;28;19920;-73
2022/06/10 09:09:18;;;;;;;;;;;17.20;99.90;;;;;;5023259;28;19960;-71
2022/06/10 09:11:46;;;;;;;;;;;17.20;99.90;;;;;;5065303;28;20386;-72
2022/06/10 09:14:12;;;;;;;;;;;17.20;99.90;;;;;;5033075;28;19975;-73
2022/06/10 09:16:40;;;;;;;;;;;17.30;99.90;;;;;;5031614;28;19960;-73
2022/06/10 09:19:12;;;;;;;;;;;17.30;99.90;;;;;;5031712;28;20023;-72
2022/06/10 09:21:40;;;;;;;;;;;17.40;99.90;;;;;;5031363;28;19924;-71
2022/06/10 09:24:33;;;;;;;;;;;17.50;99.90;;;;;;5031016;28;19916;-73
2022/06/10 09:27:03;;;;;;;;;;;17.60;99.90;;;;;;5011822;28;19924;-73
2022/06/10 09:29:29;;;;;;;;;;;17.70;99.90;;;;;;5033975;28;19917;-72
2022/06/10 09:31:54;;;;;;;;;;;17.70;99.90;;;;;;5050556;28;19943;-72
2022/06/10 09:34:43;;;;;;;;;;;17.80;99.90;;;;;;5044827;28;19977;-72
2022/06/10 09:37:24;;;;;;;;;;;17.80;99.90;;;;;;5029323;28;20374;-75
2022/06/10 09:42:51;;;;;;;;;;;17.80;99.90;;;;;;5055818;28;19978;-74
2022/06/10 09:45:27;;;;;;;;;;;18.00;99.90;;;;;;5030427;28;19924;-73
2022/06/10 09:47:55;;;;;;;;;;;18.20;99.90;;;;;;5032641;28;20342;-76
2022/06/10 09:50:31;;;;;;;;;;;18.30;99.90;;;;;;5032481;28;19929;-72
2022/06/10 09:53:07;;;;;;;;;;;18.30;99.90;;;;;;5028460;28;20406;-69
2022/06/10 09:55:59;;;;;;;;;;;18.30;99.90;;;;;;5063002;28;19925;-67
2022/06/10 09:58:31;;;;;;;;;;;18.40;99.90;;;;;;5025026;28;20264;-67
2022/06/10 10:01:02;;;;;;;;;;;18.50;99.90;;;;;;5033153;28;19924;-70
2022/06/10 10:03:29;;;;;;;;;;;18.50;99.90;;;;;;5031631;28;20367;-70
2022/06/10 10:06:13;;;;;;;;;;;18.60;99.90;;;;;;5062757;28;20320;-71
2022/06/10 10:08:50;;;;;;;;;;;18.60;99.90;;;;;;5033406;28;20390;-67
2022/06/10 10:11:18;;;;;;;;;;;18.70;99.90;;;;;;5048764;28;19968;-65
2022/06/10 10:13:43;;;;;;;;;;;19.00;99.90;;;;;;5031254;28;19924;-67
2022/06/10 10:16:28;;;;;;;;;;;19.20;99.90;;;;;;5035699;28;19923;-69
2022/06/10 10:19:12;;;;;;;;;;;19.50;99.90;;;;;;5032924;28;19920;-66
2022/06/10 10:21:50;;;;;;;;;;;19.70;99.90;;;;;;5032435;28;19916;-69
2022/06/10 10:24:22;;;;;;;;;;;19.80;99.90;;;;;;5016197;28;20268;-70
2022/06/10 10:26:49;;;;;;;;;;;20.10;99.90;;;;;;5029460;28;19924;-67
2022/06/10 10:29:22;;;;;;;;;;;20.20;99.90;;;;;;5030568;28;20004;-70
2022/06/10 10:32:07;;;;;;;;;;;20.20;99.90;;;;;;5025606;28;20319;-68
2022/06/10 10:34:36;;;;;;;;;;;20.30;99.90;;;;;;5014909;28;20249;-71
2022/06/10 10:37:04;;;;;;;;;;;20.30;99.90;;;;;;5023494;28;19917;-67
2022/06/10 10:39:31;;;;;;;;;;;20.00;99.90;;;;;;5024859;28;20039;-68
2022/06/10 10:42:01;;;;;;;;;;;19.90;99.90;;;;;;5028521;28;19925;-65
2022/06/10 10:44:32;;;;;;;;;;;19.80;99.90;;;;;;5032420;28;20571;-70
2022/06/10 10:46:58;;;;;;;;;;;19.80;99.90;;;;;;5051617;28;19935;-70
2022/06/10 10:49:26;;;;;;;;;;;19.80;99.90;;;;;;5021135;28;19921;-70
2022/06/10 10:51:52;;;;;;;;;;;19.90;99.90;;;;;;5021379;28;19937;-68
2022/06/10 10:54:24;;;;;;;;;;;19.90;99.90;;;;;;5053939;28;19924;-70
2022/06/10 10:56:51;;;;;;;;;;;19.90;99.90;;;;;;5058297;28;19921;-69
2022/06/10 10:59:22;;;;;;;;;;;20.10;99.90;;;;;;5056772;28;19921;-69
2022/06/10 11:01:50;;;;;;;;;;;20.20;99.90;;;;;;5056683;28;19927;-70
2022/06/10 11:04:25;;;;;;;;;;;20.30;99.90;;;;;;5019788;28;20026;-70
2022/06/10 11:06:58;;;;;;;;;;;20.40;99.90;;;;;;5060984;28;20371;-70
2022/06/10 11:09:25;;;;;;;;;;;20.40;99.90;;;;;;5021559;28;19936;-70
2022/06/10 11:11:51;;;;;;;;;;;20.30;99.90;;;;;;5057911;28;20283;-70
2022/06/10 11:14:21;;;;;;;;;;;20.20;99.90;;;;;;5035478;28;20364;-69
2022/06/10 11:17:09;;;;;;;;;;;20.10;99.90;;;;;;5033266;28;19916;-69
2022/06/10 11:19:35;;;;;;;;;;;19.90;99.90;;;;;;5038046;28;19987;-70
2022/06/10 11:22:03;;;;;;;;;;;19.80;99.90;;;;;;5032654;28;20575;-69
2022/06/10 11:24:29;;;;;;;;;;;19.90;99.90;;;;;;5029303;28;20007;-69
2022/06/10 11:27:02;;;;;;;;;;;20.00;99.90;;;;;;5027163;28;20012;-69
2022/06/10 11:29:28;;;;;;;;;;;20.20;99.90;;;;;;5068976;28;19921;-68
2022/06/10 11:32:00;;;;;;;;;;;20.30;99.90;;;;;;5058391;28;19964;-69
2022/06/10 11:34:33;;;;;;;;;;;20.30;99.90;;;;;;5039419;28;19966;-69
2022/06/10 11:36:58;;;;;;;;;;;20.30;99.90;;;;;;5059201;28;20317;-70
2022/06/10 11:39:27;;;;;;;;;;;20.30;99.90;;;;;;5044384;28;20253;-70
2022/06/10 11:41:58;;;;;;;;;;;20.40;99.90;;;;;;5068423;28;20379;-69
2022/06/10 11:44:25;;;;;;;;;;;20.40;99.90;;;;;;5056174;28;19959;-67
2022/06/10 11:47:10;;;;;;;;;;;20.50;99.90;;;;;;5033235;28;19940;-67
2022/06/10 11:49:40;;;;;;;;;;;20.40;99.90;;;;;;5038662;28;19924;-68
2022/06/10 11:52:15;;;;;;;;;;;20.40;99.90;;;;;;5054056;28;20388;-65
2022/06/10 11:54:47;;;;;;;;;;;20.50;99.90;;;;;;5020995;28;19917;-68
2022/06/10 12:00:00;;;;;;;;;;;20.70;99.90;;;;;;5021792;28;19971;-67
2022/06/10 12:02:31;;;;;;;;;;;20.90;99.90;;;;;;5030185;28;19927;-66
2022/06/10 12:05:20;;;;;;;;;;;21.00;99.90;;;;;;5026856;28;19933;-66
2022/06/10 12:08:04;;;;;;;;;;;21.00;99.90;;;;;;5023052;28;19924;-67
2022/06/10 12:10:35;;;;;;;;;;;21.00;99.90;;;;;;5034005;28;19917;-66
2022/06/10 12:13:00;;;;;;;;;;;20.90;99.90;;;;;;5066963;28;19990;-67
2022/06/10 12:15:36;;;;;;;;;;;20.80;99.90;;;;;;5031738;28;19928;-67
2022/06/10 12:18:03;;;;;;;;;;;20.80;99.90;;;;;;5033277;28;19931;-66
2022/06/10 12:20:52;;;;;;;;;;;20.70;99.90;;;;;;5028212;28;19920;-69
2022/06/10 12:23:23;;;;;;;;;;;20.80;99.90;;;;;;5019498;28;20019;-67
2022/06/10 12:25:55;;;;;;;;;;;20.80;99.90;;;;;;5060907;28;19963;-68
2022/06/10 12:28:39;;;;;;;;;;;20.80;99.90;;;;;;5033220;28;19916;-67
2022/06/10 12:31:20;;;;;;;;;;;20.80;99.90;;;;;;5050885;28;19964;-67
2022/06/10 12:33:56;;;;;;;;;;;20.70;99.90;;;;;;5066041;28;19916;-68
2022/06/10 12:36:26;;;;;;;;;;;20.50;99.90;;;;;;5029239;28;19921;-68
2022/06/10 12:38:53;;;;;;;;;;;20.40;99.90;;;;;;5031460;28;20018;-67
2022/06/10 12:41:20;;;;;;;;;;;20.30;99.90;;;;;;5062986;28;19917;-68
2022/06/10 12:43:53;;;;;;;;;;;20.20;99.90;;;;;;5032146;28;19950;-69
2022/06/10 12:46:21;;;;;;;;;;;20.20;99.90;;;;;;5007218;28;19942;-68
2022/06/10 12:48:47;;;;;;;;;;;20.20;99.90;;;;;;5064893;28;20410;-68
2022/06/10 12:51:12;;;;;;;;;;;20.20;99.90;;;;;;5032937;28;19920;-68
2022/06/10 12:53:38;;;;;;;;;;;20.10;99.90;;;;;;5057000;28;19916;-68
2022/06/10 12:56:17;;;;;;;;;;;20.20;99.90;;;;;;5033511;28;19917;-65
2022/06/10 12:58:45;;;;;;;;;;;20.40;99.90;;;;;;5065995;28;19987;-67
2022/06/10 13:01:10;;;;;;;;;;;20.50;99.90;;;;;;5034667;28;19916;-68
2022/06/10 13:03:37;;;;;;;;;;;20.60;99.90;;;;;;5033373;28;19924;-66
2022/06/10 13:06:04;;;;;;;;;;;20.80;99.90;;;;;;5028998;28;20007;-66
2022/06/10 13:08:37;;;;;;;;;;;21.10;99.90;;;;;;5025145;28;19916;-68
2022/06/10 13:11:04;;;;;;;;;;;21.40;99.90;;;;;;5028141;28;19959;-66
2022/06/10 13:13:30;;;;;;;;;;;21.50;99.90;;;;;;5060631;28;19970;-68
2022/06/10 13:16:16;;;;;;;;;;;21.50;99.90;;;;;;5047939;28;19917;-66
2022/06/10 13:18:54;;;;;;;;;;;21.30;99.90;;;;;;5031402;28;19927;-67
2022/06/10 13:21:26;;;;;;;;;;;21.20;99.90;;;;;;5058692;28;19917;-67
2022/06/10 13:24:11;;;;;;;;;;;21.10;99.90;;;;;;5023348;28;19920;-66
2022/06/10 13:26:37;;;;;;;;;;;21.30;99.90;;;;;;5065862;28;19925;-66
2022/06/10 13:29:21;;;;;;;;;;;21.40;99.90;;;;;;5065694;28;20016;-68
2022/06/10 13:31:48;;;;;;;;;;;21.50;99.90;;;;;;5061542;28;19920;-69
2022/06/10 13:34:19;;;;;;;;;;;21.40;99.90;;;;;;5065035;28;19916;-68
2022/06/10 13:36:54;;;;;;;;;;;21.60;99.90;;;;;;5031048;28;19916;-69
2022/06/10 13:39:24;;;;;;;;;;;22.00;99.90;;;;;;5031500;28;19920;-67
2022/06/10 13:41:54;;;;;;;;;;;21.90;99.90;;;;;;5026246;28;19927;-66
2022/06/10 13:44:39;;;;;;;;;;;22.10;99.90;;;;;;5059221;28;19917;-68
2022/06/10 13:47:17;;;;;;;;;;;22.10;99.90;;;;;;5050146;28;20405;-66
2022/06/10 13:52:36;;;;;;;;;;;22.70;99.90;;;;;;5031532;28;19924;-66
2022/06/10 13:55:35;;;;;;;;;;;22.70;99.90;;;;;;5066116;28;20230;-67
2022/06/10 13:58:01;;;;;;;;;;;22.60;99.90;;;;;;5004489;28;19924;-67
2022/06/10 14:00:29;;;;;;;;;;;22.20;99.90;;;;;;5032074;28;19917;-70
2022/06/10 14:02:56;;;;;;;;;;;21.80;99.90;;;;;;5018072;28;19917;-66
2022/06/10 14:05:23;;;;;;;;;;;21.40;99.90;;;;;;5058477;28;19925;-71
2022/06/10 14:07:49;;;;;;;;;;;21.20;99.90;;;;;;5027593;28;20310;-67
2022/06/10 14:10:21;;;;;;;;;;;21.00;99.90;;;;;;5064195;28;19920;-69
2022/06/10 14:12:55;;;;;;;;;;;21.10;99.90;;;;;;5049438;28;20118;-65
2022/06/10 14:15:24;;;;;;;;;;;21.40;99.90;;;;;;5017877;28;19928;-66
2022/06/10 14:17:51;;;;;;;;;;;21.70;99.90;;;;;;5053359;28;19992;-66
2022/06/10 14:20:18;;;;;;;;;;;21.70;99.90;;;;;;5036096;28;19923;-69
2022/06/10 14:22:46;;;;;;;;;;;21.60;99.90;;;;;;5054801;28;19923;-67
2022/06/10 14:25:14;;;;;;;;;;;21.50;99.90;;;;;;5021733;28;19925;-66
2022/06/10 14:27:48;;;;;;;;;;;21.40;99.90;;;;;;5019425;28;19924;-68
2022/06/10 14:30:20;;;;;;;;;;;21.30;99.90;;;;;;5051943;28;19923;-68
2022/06/10 14:32:49;;;;;;;;;;;21.20;99.90;;;;;;5033724;28;20385;-66
2022/06/10 14:35:30;;;;;;;;;;;21.20;99.90;;;;;;5025738;28;19921;-68
2022/06/10 14:38:01;;;;;;;;;;;21.30;99.90;;;;;;5027903;28;20359;-67
2022/06/10 14:40:26;;;;;;;;;;;21.40;99.90;;;;;;5039236;28;19932;-68
2022/06/10 14:43:00;;;;;;;;;;;21.50;99.90;;;;;;5026262;28;19924;-69
2022/06/10 14:45:31;;;;;;;;;;;21.60;99.90;;;;;;5061711;28;20048;-67